Latest Weather Observations for Paraburdoo

IDW60801

Issued at 11:43 pm WST Sunday 5 July 2020 (issued every 10 minutes, with the page automatically refreshed every 10 minutes)

About weather observations | Map of weather stations | Latest weather observations for WA | Other Formats
Station Details ID: 007185 Name: PARABURDOO AERO Lat: -23.17 Lon: 117.75 Height: 423.7 m
Data from the previous 72 hours. | See also: Recent months at Paraburdoo
Date/Time
WST
Temp
°C
App
Temp
°C
Dew
Point
°C
Rel
Hum
%
Delta-T
°C
Wind Press
QNH
hPa
Press
MSL
hPa
Rain since
9am
mm
Dir  Spd
km/h
Gust
km/h
Spd
kts
Gust
kts
05/11:30pm 20.0 15.9 2.4 31 8.3 NE 13 15 7 8 1019.6 1018.6 0.0
05/11:00pm 20.3 18.7 2.2 30 8.5 CALM 0 0 0 0 1019.8 1018.8 0.0
05/10:30pm 20.8 17.8 2.1 29 8.9 NE 7 9 4 5 1019.6 1018.6 0.0
05/10:00pm 21.7 18.0 2.4 28 9.2 NE 11 13 6 7 1019.6 1018.6 0.0
05/09:30pm 21.8 18.1 2.5 28 9.3 NE 11 15 6 8 1019.4 1018.3 0.0
05/09:00pm 21.7 17.6 2.4 28 9.2 NE 13 17 7 9 1019.2 1018.1 0.0
05/08:30pm 22.3 18.2 2.4 27 9.6 NE 13 17 7 9 1019.1 1018.0 0.0
05/08:00pm 22.2 18.7 3.3 29 9.2 NE 11 13 6 7 1019.0 1017.9 0.0
05/07:30pm 23.1 19.1 3.1 27 9.8 ENE 13 13 7 7 1018.8 1017.7 0.0
05/07:00pm 25.1 21.1 3.1 24 10.9 NNE 13 15 7 8 1018.6 1017.5 0.0
05/06:30pm 25.7 22.1 3.0 23 11.3 N 11 13 6 7 1018.3 1017.3 0.0
05/06:00pm 26.2 22.6 2.8 22 11.7 N 11 13 6 7 1017.9 1016.9 0.0
05/05:30pm 27.0 22.9 2.1 20 12.3 N 13 17 7 9 1017.7 1016.7 0.0
05/05:00pm 27.4 23.0 2.5 20 12.4 N 15 20 8 11 1017.4 1016.3 0.0
05/04:30pm 27.8 22.9 2.1 19 12.8 N 17 22 9 12 1017.2 1016.1 0.0
05/04:00pm 28.1 23.6 2.3 19 12.9 N 15 20 8 11 1017.2 1016.1 0.0
05/03:30pm 29.2 24.4 2.5 18 13.5 N 17 28 9 15 1017.3 1016.2 0.0
05/03:00pm 28.9 24.0 2.2 18 13.4 N 17 30 9 16 1017.3 1016.2 0.0
05/02:30pm 29.1 24.4 3.1 19 13.3 N 17 24 9 13 1017.7 1016.7 0.0
05/02:00pm 28.9 24.9 3.0 19 13.2 N 13 22 7 12 1017.9 1016.9 0.0
05/01:30pm 29.3 24.9 4.7 21 12.9 E 17 24 9 13 1018.2 1017.2 0.0
05/01:00pm 28.3 23.7 3.9 21 12.6 ENE 17 26 9 14 1018.8 1017.7 0.0
05/12:30pm 28.4 23.0 4.6 22 12.4 NE 22 32 12 17 1019.3 1018.2 0.0
05/12:00pm 28.3 22.7 5.2 23 12.1 NE 24 32 13 17 1019.9 1018.9 0.0
05/11:30am 27.3 21.2 5.0 24 11.6 NE 26 33 14 18 1020.4 1019.4 0.0
05/11:00am 26.9 20.5 5.2 25 11.3 NE 28 35 15 19 1020.8 1019.8 0.0
05/10:30am 26.2 20.2 5.2 26 10.9 NE 26 33 14 18 1021.3 1020.2 0.0
05/10:00am 25.1 19.0 4.8 27 10.4 ENE 26 35 14 19 1021.7 1020.7 0.0
05/09:30am 24.4 18.8 5.2 29 9.9 NE 24 33 13 18 1021.8 1020.8 0.0
05/09:00am 23.0 17.3 5.0 31 9.1 NE 24 32 13 17 1021.8 1020.8 0.0
05/08:30am 21.8 16.8 4.8 33 8.5 NE 20 28 11 15 1021.7 1020.7 0.0
05/08:00am 19.9 15.9 4.8 37 7.5 ENE 15 20 8 11 1021.6 1020.5 0.0
05/07:30am 17.6 13.9 4.6 42 6.3 NE 13 17 7 9 1021.4 1020.3 0.0
05/07:00am 17.1 12.6 4.4 43 6.1 ENE 17 20 9 11 1020.9 1019.9 0.0
05/06:30am 16.8 13.1 4.5 44 5.9 ENE 13 17 7 9 1020.8 1019.8 0.0
05/06:00am 16.4 12.8 4.8 46 5.6 NE 13 17 7 9 1020.5 1019.5 0.0
05/05:30am 17.0 13.0 4.7 44 6.0 NE 15 19 8 10 1020.3 1019.3 0.0
05/05:00am 15.5 12.5 4.3 47 5.3 NE 9 11 5 6 1020.2 1019.2 0.0
05/04:30am 15.6 11.8 4.0 46 5.5 NNE 13 15 7 8 1020.3 1019.3 0.0
05/04:00am 16.0 12.9 3.4 43 5.9 NE 9 13 5 7 1020.4 1019.4 0.0
05/03:30am 17.4 13.2 3.7 40 6.5 NE 15 19 8 10 1020.3 1019.3 0.0
05/03:00am 17.5 12.9 3.8 40 6.5 NE 17 19 9 10 1020.3 1019.3 0.0
05/02:30am 16.8 12.5 3.5 41 6.3 NE 15 19 8 10 1020.7 1019.7 0.0
05/02:00am 15.4 12.0 3.9 46 5.4 NE 11 17 6 9 1020.9 1019.9 0.0
05/01:30am 16.3 12.0 3.4 42 6.1 NE 15 17 8 9 1021.1 1020.0 0.0
05/01:00am 15.5 12.2 2.7 42 5.9 NE 9 11 5 6 1021.2 1020.1 0.0
05/12:30am 15.3 11.7 2.8 43 5.8 ENE 11 13 6 7 1021.3 1020.2 0.0
05/12:00am 16.1 13.3 3.2 42 6.0 NE 7 11 4 6 1021.4 1020.3 0.0
 
Date/Time
WST
Temp
°C
App
Temp
°C
Dew
Point
°C
Rel
Hum
%
Delta-T
°C
Wind Press
QNH
hPa
Press
MSL
hPa
Rain since
9am
mm
Dir  Spd
km/h
Gust
km/h
Spd
kts
Gust
kts
04/11:30pm 16.6 14.3 2.6 39 6.5 NE 4 7 2 4 1021.4 1020.3 0.0
04/11:00pm 16.5 13.5 1.8 37 6.7 NE 7 9 4 5 1021.5 1020.4 0.0
04/10:30pm 17.2 13.4 2.0 36 7.0 NE 11 13 6 7 1021.5 1020.4 0.0
04/10:00pm 17.4 13.9 1.4 34 7.3 NNE 9 11 5 6 1021.4 1020.3 0.0
04/09:30pm 18.5 15.0 1.5 32 7.8 NE 9 11 5 6 1021.5 1020.4 0.0
04/09:00pm 19.0 16.1 1.5 31 8.1 NE 6 9 3 5 1021.5 1020.4 0.0
04/08:30pm 19.6 16.4 0.6 28 8.7 ENE 7 7 4 4 1021.4 1020.3 0.0
04/08:00pm 19.2 15.4 1.7 31 8.1 E 11 15 6 8 1021.3 1020.2 0.0
04/07:30pm 21.4 18.1 2.2 28 9.2 SE 9 11 5 6 1020.9 1019.9 0.0
04/07:00pm 21.5 18.1 1.7 27 9.3 S 9 11 5 6 1020.6 1019.6 0.0
04/06:30pm 22.6 19.2 2.1 26 9.8 SE 9 11 5 6 1020.3 1019.3 0.0
04/06:00pm 24.3 21.3 1.9 23 10.8 SE 7 11 4 6 1019.9 1018.9 0.0
04/05:30pm 26.0 22.5 1.3 20 12.0 ESE 9 11 5 6 1019.6 1018.6 0.0
04/05:00pm 27.6 24.1 1.2 18 12.9 SE 9 13 5 7 1019.2 1018.1 0.0
04/04:30pm 27.9 23.7 1.4 18 13.0 ESE 13 17 7 9 1019.2 1018.1 0.0
04/04:00pm 28.2 24.8 1.7 18 13.1 ESE 9 15 5 8 1019.1 1018.0 0.0
04/03:30pm 28.1 23.9 1.6 18 13.1 SE 13 19 7 10 1019.1 1018.0 0.0
04/03:22pm 28.1 23.5 1.6 18 13.1 SE 15 24 8 13 1019.1 1018.0 0.0
04/03:04pm 28.4 24.5 1.0 17 13.4 ESE 11 20 6 11 1019.2 1018.1 0.0
04/03:00pm 28.4 23.8 1.8 18 13.2 ESE 15 20 8 11 1019.3 1018.2 0.0
04/02:30pm 27.9 23.7 1.4 18 13.0 ESE 13 20 7 11 1019.5 1018.4 0.0
04/02:00pm 27.6 23.3 1.2 18 12.9 ESE 13 17 7 9 1019.9 1018.9 0.0
04/01:30pm 26.9 22.6 1.3 19 12.5 ESE 13 20 7 11 1020.3 1019.3 0.0
04/01:00pm 27.2 23.8 1.6 19 12.5 ENE 9 24 5 13 1020.9 1019.9 0.0
04/12:30pm 26.5 22.6 1.0 19 12.3 ENE 11 17 6 9 1021.6 1020.5 0.0
04/12:00pm 25.7 21.0 1.1 20 11.8 E 15 24 8 13 1022.0 1021.0 0.0
04/11:30am 25.6 21.0 1.7 21 11.6 ENE 15 22 8 12 1022.4 1021.4 0.0
04/11:00am 24.6 19.0 1.5 22 11.1 NE 20 24 11 13 1022.8 1021.8 0.0
04/10:30am 23.7 18.3 1.4 23 10.7 ENE 19 28 10 15 1023.3 1022.3 0.0
04/10:00am 22.5 16.9 1.5 25 9.9 ENE 20 28 11 15 1023.7 1022.6 0.0
04/09:30am 21.3 15.4 1.6 27 9.3 ENE 22 30 12 16 1023.9 1022.9 0.0
04/09:00am 20.6 15.2 1.5 28 8.9 ENE 19 24 10 13 1024.0 1023.0 0.0
04/08:30am 19.3 13.8 1.8 31 8.2 ENE 20 26 11 14 1023.9 1022.9 0.0
04/08:00am 17.4 13.2 1.8 35 7.1 ENE 13 15 7 8 1023.6 1022.5 0.0
04/07:30am 14.4 10.3 2.0 43 5.6 NE 13 17 7 9 1023.3 1022.3 0.0
04/07:00am 13.6 9.0 1.6 44 5.3 ENE 15 17 8 9 1023.2 1022.2 0.0
04/06:30am 14.2 8.6 1.5 42 5.6 NE 20 22 11 12 1023.1 1022.1 0.0
04/06:00am 13.7 9.1 1.4 43 5.4 ENE 15 17 8 9 1023.0 1022.0 0.0
04/05:30am 14.2 9.5 1.2 41 5.7 ENE 15 17 8 9 1022.9 1021.9 0.0
04/05:00am 14.3 9.6 1.2 41 5.8 ENE 15 17 8 9 1022.9 1021.9 0.0
04/04:30am 14.3 9.2 0.9 40 5.9 NE 17 19 9 10 1022.9 1021.9 0.0
04/04:00am 14.8 10.8 0.6 38 6.2 ENE 11 15 6 8 1023.1 1022.1 0.0
04/03:30am 15.7 11.4 0.7 36 6.6 NE 13 17 7 9 1023.2 1022.2 0.0
04/03:00am 15.6 11.5 -0.2 34 6.8 NE 11 15 6 8 1023.3 1022.3 0.0
04/02:30am 16.7 12.2 -0.1 32 7.4 NE 13 17 7 9 1023.3 1022.3 0.0
04/02:00am 17.1 13.0 -0.1 31 7.5 NE 11 13 6 7 1023.6 1022.5 0.0
04/01:30am 17.4 13.7 -0.3 30 7.8 ENE 9 13 5 7 1023.9 1022.9 0.0
04/01:00am 18.1 14.0 -0.2 29 8.1 E 11 15 6 8 1024.0 1023.0 0.0
04/12:30am 19.0 14.2 0.1 28 8.5 ENE 15 20 8 11 1023.8 1022.8 0.0
04/12:00am 19.1 14.2 -0.3 27 8.6 E 15 19 8 10 1023.9 1022.9 0.0
 
Date/Time
WST
Temp
°C
App
Temp
°C
Dew
Point
°C
Rel
Hum
%
Delta-T
°C
Wind Press
QNH
hPa
Press
MSL
hPa
Rain since
9am
mm
Dir  Spd
km/h
Gust
km/h
Spd
kts
Gust
kts
03/11:30pm 19.1 14.2 -0.3 27 8.6 E 15 19 8 10 1024.0 1023.0 0.0
03/11:00pm 19.3 14.8 -0.1 27 8.7 E 13 19 7 10 1024.1 1023.1 0.0
03/10:30pm 20.4 15.1 -0.3 25 9.3 E 17 24 9 13 1024.2 1023.2 0.0
03/10:00pm 20.8 16.0 0.1 25 9.4 ENE 15 22 8 12 1024.2 1023.2 0.0
03/09:30pm 20.5 16.8 -0.2 25 9.4 ENE 9 15 5 8 1024.1 1023.1 0.0
03/09:00pm 21.2 17.1 -0.1 24 9.7 ESE 11 15 6 8 1023.8 1022.8 0.0
03/08:30pm 21.9 16.7 -0.1 23 10.1 ESE 17 22 9 12 1023.6 1022.5 0.0
03/08:00pm 22.5 16.9 -0.3 22 10.4 E 19 24 10 13 1023.2 1022.2 0.0
03/07:30pm 23.0 17.3 -0.5 21 10.8 ENE 19 28 10 15 1022.9 1021.9 0.0
03/07:00pm 23.0 18.1 -0.5 21 10.7 E 15 22 8 12 1022.4 1021.4 0.0
03/06:30pm 24.0 18.4 -0.3 20 11.3 ENE 19 32 10 17 1022.0 1021.0 0.0
03/06:00pm 24.5 18.7 0.1 20 11.4 ENE 20 28 11 15 1021.6 1020.5 0.0
03/05:30pm 25.1 19.3 -0.1 19 11.8 ENE 20 30 11 16 1021.3 1020.2 0.0
03/05:00pm 26.1 19.9 0.0 18 12.3 ENE 22 30 12 16 1020.9 1019.9 0.0
03/04:30pm 26.6 20.8 -0.4 17 12.8 ENE 20 30 11 16 1020.7 1019.7 0.0
03/04:00pm 27.2 21.6 0.1 17 12.9 ENE 19 26 10 14 1020.6 1019.6 0.0
03/03:30pm 27.6 22.8 0.4 17 13.1 NE 15 24 8 13 1020.4 1019.4 0.0
03/03:00pm 27.3 21.5 0.1 17 13.0 ENE 20 30 11 16 1020.5 1019.5 0.0
03/02:30pm 27.5 21.0 0.3 17 13.1 ENE 24 37 13 20 1020.6 1019.6 0.0
03/02:00pm 27.3 20.9 0.9 18 12.8 NE 24 35 13 19 1020.7 1019.7 0.0
03/01:30pm 27.1 21.2 1.5 19 12.6 NE 22 32 12 17 1021.1 1020.0 0.0
03/01:00pm 27.0 21.4 1.4 19 12.5 NE 20 30 11 16 1021.5 1020.4 0.0
03/12:30pm 26.6 20.7 1.8 20 12.2 E 22 35 12 19 1022.0 1021.0 0.0
03/12:00pm 26.5 20.7 2.4 21 11.9 E 22 35 12 19 1022.5 1021.5 0.0
03/11:30am 25.7 19.9 2.4 22 11.5 E 22 35 12 19 1022.9 1021.9 0.0
03/11:00am 24.9 19.3 3.5 25 10.7 ENE 22 32 12 17 1023.3 1022.3 0.0
03/10:30am 24.2 18.3 4.0 27 10.2 NE 24 32 13 17 1023.4 1022.4 0.0
03/10:00am 23.0 17.3 5.0 31 9.1 ENE 24 32 13 17 1023.6 1022.5 0.0
03/09:30am 21.9 16.6 4.9 33 8.6 ENE 22 32 12 17 1024.0 1023.0 0.0
03/09:00am 20.9 15.2 4.9 35 8.0 ENE 24 32 13 17 1023.9 1022.9 0.0
03/08:30am 19.4 15.0 4.7 38 7.3 ENE 17 24 9 13 1024.0 1023.0 0.0
03/08:00am 18.6 14.9 4.4 39 6.9 NE 13 17 7 9 1023.9 1022.9 0.0
03/07:30am 18.5 14.7 3.9 38 7.0 ENE 13 17 7 9 1023.2 1022.2 0.0
03/07:00am 18.5 14.7 3.9 38 7.0 ENE 13 17 7 9 1022.6 1021.6 0.0
03/06:30am 19.1 15.2 3.3 35 7.6 ENE 13 19 7 10 1022.1 1021.1 0.0
03/06:00am 19.5 14.4 3.2 34 7.8 ENE 19 24 10 13 1021.7 1020.7 0.0
03/05:30am 19.6 14.9 3.3 34 7.8 ENE 17 22 9 12 1021.4 1020.3 0.0
03/05:00am 19.6 15.3 3.3 34 7.8 ENE 15 19 8 10 1021.3 1020.2 0.0
03/04:30am 20.4 15.4 3.6 33 8.2 ENE 19 24 10 13 1021.4 1020.3 0.0
03/04:00am 20.3 14.8 3.9 34 8.0 E 22 30 12 16 1020.9 1019.9 0.0
03/03:30am 20.6 16.2 5.0 36 7.8 E 17 26 9 14 1020.8 1019.8 0.0
03/03:00am 19.9 16.0 5.2 38 7.3 ENE 15 19 8 10 1020.8 1019.8 0.0
03/02:30am 18.7 15.1 5.2 41 6.7 ENE 13 17 7 9 1020.8 1019.8 0.0
03/02:00am 19.0 15.3 4.7 39 7.0 ENE 13 19 7 10 1020.9 1019.9 0.0
03/01:30am 18.9 15.6 4.7 39 7.0 ENE 11 13 6 7 1020.8 1019.8 0.0
03/01:00am 19.7 16.0 4.6 37 7.4 ENE 13 15 7 8 1020.7 1019.7 0.0
03/12:30am 20.1 16.8 4.6 36 7.7 ENE 11 17 6 9 1020.7 1019.7 0.0
03/12:00am 19.6 15.9 4.5 37 7.4 ENE 13 17 7 9 1020.7 1019.7 0.0

Other formats

Comma delimited format used in spreadsheet applications
http://www.bom.gov.au/fwo/IDW60801/IDW60801.94316.axf

JavaScript Object Notation format (JSON) in row-major order
http://www.bom.gov.au/fwo/IDW60801/IDW60801.94316.json

Data quality

Most of these data are generated automatically and are frequently updated. Quality checks on data are not normally performed. It is possible for incorrect values to appear. Refer to information at About Latest Weather Observations and please check the disclaimer before using these data.